KDYS/DYS METAR and TAF weather

Enter ICAO airport designator
Station Type Date Time Source
KDYS METAR 2020/07/12 17:56 UTC NOAA

KDYS 121756Z AUTO 19012G19KT 10SM FEW130 SCT150 SCT190 BKN210 34/18 A2999 RMK AO2 SLP101 T03440184 10345 20261 57024


Station Type Date Time Source
KDYS Decoded METAR 2020/07/12 17:56 UTC NOAA

Abilene, Dyess Air Force Base, TX, United States (KDYS) 32-25-12N 099-51-25W
Jul 12, 2020 - 01:56 PM EDT / 2020.07.12 1756 UTC
Wind: from the S (190 degrees) at 14 MPH (12 KT) gusting to 22 MPH (19 KT):0
Visibility: 10 mile(s):0
Sky conditions: mostly cloudy
Temperature: 93.9 F (34.4 C)
Heat index: 96.1 F (35.6 C):1
Dew Point: 65.1 F (18.4 C)
Relative Humidity: 38%
Pressure (altimeter): 29.99 in. Hg (1015 hPa)
Pressure tendency: 0.07 inches (2.4 hPa) lower than three hours ago
ob: KDYS 121756Z AUTO 19012G19KT 10SM FEW130 SCT150 SCT190 BKN210 34/18 A2999 RMK AO2 SLP101 T03440184 10345 20261 57024
cycle: 18

Station Type Date Time Source
KDYS TAF 2020/07/12 16:58 UTC NOAA

TAF KDYS 121600Z 1216/1322 16012G18KT 9999 FEW120 QNH2981INS
TEMPO 1312/1314 19015G25KT 8000 -TSRA BKN100CB
BECMG 1315/1316 20020G25KT 9999 FEW140 QNH2986INS
BECMG 1320/1321 19012G18KT 9999 SCT150 QNH2978INS TX40/1222Z TN26/1312Z

Example: see airport list